createdAt,value
2022-08-31T00:00:09.754Z,17.62
2022-08-31T00:00:59.746Z,17.58
2022-08-31T00:01:49.771Z,17.55
2022-08-31T00:02:39.719Z,17.53
2022-08-31T00:03:29.698Z,17.51
2022-08-31T00:04:19.761Z,17.51
2022-08-31T00:05:09.951Z,17.51
2022-08-31T00:05:59.703Z,17.53
2022-08-31T00:06:49.714Z,17.55
2022-08-31T00:07:40.305Z,17.57
2022-08-31T00:08:29.660Z,17.58
2022-08-31T00:09:19.690Z,17.62
2022-08-31T00:10:09.664Z,17.60
2022-08-31T00:10:59.642Z,17.62
2022-08-31T00:11:49.623Z,17.63
2022-08-31T00:12:39.633Z,17.63
2022-08-31T00:13:29.973Z,17.65
2022-08-31T00:14:19.607Z,17.63
2022-08-31T00:15:09.600Z,17.60
2022-08-31T00:15:59.616Z,17.55
2022-08-31T00:16:49.635Z,17.55
2022-08-31T00:17:39.580Z,17.57
2022-08-31T00:18:29.565Z,17.60
2022-08-31T00:19:19.580Z,17.60
2022-08-31T00:20:09.568Z,17.62
2022-08-31T00:21:00.551Z,17.65
2022-08-31T00:21:49.553Z,17.66
2022-08-31T00:22:39.516Z,17.68
2022-08-31T00:23:29.518Z,17.70
2022-08-31T00:24:19.545Z,17.71
2022-08-31T00:25:09.520Z,17.71
2022-08-31T00:25:59.491Z,17.74
2022-08-31T00:26:49.480Z,17.73
2022-08-31T00:27:39.490Z,17.71
2022-08-31T00:28:29.470Z,17.70
2022-08-31T00:29:19.458Z,17.66
2022-08-31T00:30:09.470Z,17.65
2022-08-31T00:30:59.442Z,17.63
2022-08-31T00:31:49.477Z,17.60
2022-08-31T00:32:39.438Z,17.62
2022-08-31T00:33:29.398Z,17.57
2022-08-31T00:34:19.434Z,17.57
2022-08-31T00:35:09.385Z,17.49
2022-08-31T00:35:59.407Z,17.43
2022-08-31T00:36:49.386Z,17.40
2022-08-31T00:37:39.363Z,17.42
2022-08-31T00:38:29.382Z,17.39
2022-08-31T00:39:19.369Z,17.38
2022-08-31T00:40:09.437Z,17.33
2022-08-31T00:40:59.357Z,17.35
2022-08-31T00:41:49.339Z,17.39
2022-08-31T00:42:39.317Z,17.42
2022-08-31T00:43:29.316Z,17.42
2022-08-31T00:44:19.310Z,17.45
2022-08-31T00:45:09.347Z,17.47
2022-08-31T00:45:59.344Z,17.51
2022-08-31T00:46:49.278Z,17.51
2022-08-31T00:47:39.270Z,17.54
2022-08-31T00:48:29.255Z,17.54
2022-08-31T00:49:19.265Z,17.55
2022-08-31T00:50:09.239Z,17.57
2022-08-31T00:50:59.230Z,17.57
2022-08-31T00:51:49.233Z,17.55
2022-08-31T00:52:39.230Z,17.55
2022-08-31T00:53:29.219Z,17.46
2022-08-31T00:54:19.214Z,17.40
2022-08-31T00:55:09.206Z,17.39
2022-08-31T00:55:59.178Z,17.38
2022-08-31T00:56:49.178Z,17.30
2022-08-31T00:57:39.177Z,17.25
2022-08-31T00:58:29.160Z,17.17
2022-08-31T00:59:19.157Z,17.10
2022-08-31T01:00:09.170Z,17.10
2022-08-31T01:00:59.185Z,17.09
2022-08-31T01:01:49.196Z,17.10
2022-08-31T01:02:39.312Z,17.07
2022-08-31T01:03:29.107Z,17.10
2022-08-31T01:04:19.110Z,17.09
2022-08-31T01:05:09.091Z,17.10
2022-08-31T01:05:59.092Z,17.12
2022-08-31T01:06:49.084Z,17.10
2022-08-31T01:07:39.085Z,17.10
2022-08-31T01:08:31.049Z,17.09
2022-08-31T01:09:19.072Z,17.12
2022-08-31T01:10:09.052Z,17.09
2022-08-31T01:10:59.033Z,17.06
2022-08-31T01:11:49.029Z,17.03
2022-08-31T01:12:39.015Z,16.99
2022-08-31T01:13:28.995Z,16.95
2022-08-31T01:14:19.008Z,16.90
2022-08-31T01:16:35.711Z,16.90
2022-08-31T01:16:42.410Z,16.85
2022-08-31T01:17:30.376Z,16.87
2022-08-31T01:18:20.375Z,16.87
2022-08-31T01:19:10.395Z,16.82
2022-08-31T01:20:00.353Z,16.82
2022-08-31T01:20:50.325Z,16.84
2022-08-31T01:21:40.331Z,16.82
2022-08-31T01:22:30.306Z,16.80
2022-08-31T01:23:20.311Z,16.81
2022-08-31T01:24:10.315Z,16.82
2022-08-31T01:25:00.296Z,16.85
2022-08-31T01:25:50.294Z,16.87
2022-08-31T01:26:40.279Z,16.88
2022-08-31T01:27:30.256Z,16.90
2022-08-31T01:28:20.269Z,16.85
2022-08-31T01:29:10.265Z,16.88
2022-08-31T01:30:00.281Z,16.92
2022-08-31T01:30:50.235Z,16.95
2022-08-31T01:31:40.291Z,16.99
2022-08-31T01:32:30.237Z,17.02
2022-08-31T01:33:20.205Z,17.03
2022-08-31T01:34:10.212Z,17.05
2022-08-31T01:35:00.195Z,17.06
2022-08-31T01:35:50.189Z,17.06
2022-08-31T01:36:40.173Z,17.05
2022-08-31T01:37:30.258Z,17.05
2022-08-31T01:38:20.144Z,17.06
2022-08-31T01:39:10.158Z,17.05
2022-08-31T01:40:00.225Z,17.06
2022-08-31T01:40:50.124Z,17.07
2022-08-31T01:41:40.124Z,17.06
2022-08-31T01:42:33.506Z,17.07
2022-08-31T01:43:20.158Z,17.10
2022-08-31T01:44:10.105Z,17.09
2022-08-31T01:45:00.097Z,17.10
2022-08-31T01:45:50.063Z,17.10
2022-08-31T01:46:40.150Z,17.12
2022-08-31T01:47:30.054Z,17.14
2022-08-31T01:48:20.042Z,17.14
2022-08-31T01:49:10.065Z,17.12
2022-08-31T01:50:00.048Z,17.14
2022-08-31T01:50:50.034Z,17.12
2022-08-31T01:51:40.011Z,17.14
2022-08-31T01:52:30.012Z,17.14
2022-08-31T01:53:20.130Z,17.15
2022-08-31T01:54:09.995Z,17.12
2022-08-31T01:54:59.990Z,17.12
2022-08-31T01:55:49.968Z,17.14
2022-08-31T01:56:39.966Z,17.14
2022-08-31T01:57:33.983Z,17.15
2022-08-31T01:58:19.945Z,17.17
2022-08-31T01:59:09.952Z,17.17
2022-08-31T01:59:59.934Z,17.20
2022-08-31T02:00:49.948Z,17.20
2022-08-31T02:01:40.069Z,17.17
2022-08-31T02:02:30.070Z,17.14
2022-08-31T02:03:19.970Z,17.12
2022-08-31T02:04:09.914Z,17.10
2022-08-31T02:04:59.874Z,17.09
2022-08-31T02:05:49.863Z,17.07
2022-08-31T02:06:39.854Z,17.02
2022-08-31T02:07:29.843Z,16.99
2022-08-31T02:08:19.854Z,16.98
2022-08-31T02:09:09.857Z,16.95
2022-08-31T02:09:59.816Z,16.95
2022-08-31T02:10:49.804Z,16.91
2022-08-31T02:11:39.811Z,16.90
2022-08-31T02:12:29.794Z,16.87
2022-08-31T02:13:19.870Z,16.85
2022-08-31T02:14:09.789Z,16.84
2022-08-31T02:14:59.792Z,16.85
2022-08-31T02:15:49.797Z,16.85
2022-08-31T02:16:39.814Z,16.87
2022-08-31T02:17:29.749Z,16.84
2022-08-31T02:18:19.773Z,16.88
2022-08-31T02:19:09.734Z,16.88
2022-08-31T02:19:59.728Z,16.91
2022-08-31T02:20:49.694Z,16.91
2022-08-31T02:21:39.692Z,16.92
2022-08-31T02:22:29.694Z,16.92
2022-08-31T02:23:19.829Z,16.91
2022-08-31T02:24:09.691Z,16.92
2022-08-31T02:24:59.654Z,16.95
2022-08-31T02:25:49.646Z,16.95
2022-08-31T02:26:39.668Z,16.98
2022-08-31T02:27:29.636Z,16.95
2022-08-31T02:28:19.634Z,16.98
2022-08-31T02:29:09.643Z,16.98
2022-08-31T02:29:59.625Z,16.98
2022-08-31T02:30:49.594Z,16.96
2022-08-31T02:31:39.635Z,16.95
2022-08-31T02:32:29.583Z,16.95
2022-08-31T02:33:19.745Z,16.92
2022-08-31T02:34:09.573Z,16.85
2022-08-31T02:34:59.553Z,16.81
2022-08-31T02:35:51.744Z,16.75
2022-08-31T02:36:39.543Z,16.69
2022-08-31T02:37:29.522Z,16.62
2022-08-31T02:38:19.513Z,16.59
2022-08-31T02:39:09.525Z,16.54
2022-08-31T02:39:59.510Z,16.54
2022-08-31T02:40:49.535Z,16.57
2022-08-31T02:41:39.483Z,16.57
2022-08-31T02:42:32.884Z,16.62
2022-08-31T02:43:24.820Z,16.63
2022-08-31T02:44:09.483Z,16.66
2022-08-31T02:44:59.440Z,16.66
2022-08-31T02:45:51.093Z,16.67
2022-08-31T02:46:39.496Z,16.69
2022-08-31T02:47:29.412Z,16.73
2022-08-31T02:48:19.412Z,16.75
2022-08-31T02:49:09.427Z,16.77
2022-08-31T02:49:59.392Z,16.78
2022-08-31T02:50:49.393Z,16.80
2022-08-31T02:51:39.399Z,16.80
2022-08-31T02:52:29.363Z,16.81
2022-08-31T02:53:19.462Z,16.82
2022-08-31T02:54:09.372Z,16.82
2022-08-31T02:54:59.333Z,16.84
2022-08-31T02:55:49.340Z,16.85
2022-08-31T02:56:39.314Z,16.85
2022-08-31T02:57:29.304Z,16.85
2022-08-31T02:58:23.856Z,16.87
2022-08-31T02:59:09.309Z,16.88
2022-08-31T02:59:59.299Z,16.90
2022-08-31T03:00:49.272Z,16.88
2022-08-31T03:01:39.306Z,16.90
2022-08-31T03:02:32.018Z,16.90
2022-08-31T03:03:19.558Z,16.90
2022-08-31T03:04:09.254Z,16.90
2022-08-31T03:04:59.245Z,16.90
2022-08-31T03:05:49.223Z,16.88
2022-08-31T03:06:39.222Z,16.90
2022-08-31T03:07:29.192Z,16.88
2022-08-31T03:08:19.198Z,16.88
2022-08-31T03:09:09.215Z,16.90
2022-08-31T03:09:59.172Z,16.90
2022-08-31T03:10:49.180Z,16.90
2022-08-31T03:11:39.189Z,16.90
2022-08-31T03:12:29.152Z,16.88
2022-08-31T03:13:19.325Z,16.88
2022-08-31T03:14:09.166Z,16.88
2022-08-31T03:14:59.123Z,16.88
2022-08-31T03:15:49.166Z,16.90
2022-08-31T03:16:39.112Z,16.85
2022-08-31T03:17:29.092Z,16.80
2022-08-31T03:18:19.085Z,16.78
2022-08-31T03:19:09.110Z,16.75
2022-08-31T03:19:59.083Z,16.69
2022-08-31T03:20:49.082Z,16.66
2022-08-31T03:21:39.056Z,16.59
2022-08-31T03:22:29.045Z,16.52
2022-08-31T03:23:19.248Z,16.51
2022-08-31T03:24:09.039Z,16.48
2022-08-31T03:24:59.030Z,16.44
2022-08-31T03:25:49.008Z,16.45
2022-08-31T03:26:38.991Z,16.48
2022-08-31T03:27:28.991Z,16.48
2022-08-31T03:28:18.990Z,16.50
2022-08-31T03:29:08.991Z,16.52
2022-08-31T03:29:58.985Z,16.51
2022-08-31T03:30:49.011Z,16.54
2022-08-31T03:31:39.052Z,16.55
2022-08-31T03:32:28.932Z,16.57
2022-08-31T03:33:19.117Z,16.59
2022-08-31T03:34:08.926Z,16.62
2022-08-31T03:34:58.923Z,16.63
2022-08-31T03:35:48.909Z,16.66
2022-08-31T03:36:38.891Z,16.67
2022-08-31T03:37:28.918Z,16.67
2022-08-31T03:38:18.871Z,16.67
2022-08-31T03:39:08.870Z,16.70
2022-08-31T03:39:58.874Z,16.70
2022-08-31T03:40:48.888Z,16.69
2022-08-31T03:41:38.834Z,16.65
2022-08-31T03:42:28.839Z,16.63
2022-08-31T03:43:19.042Z,16.63
2022-08-31T03:44:08.823Z,16.63
2022-08-31T03:44:58.805Z,16.65
2022-08-31T03:45:48.833Z,16.66
2022-08-31T03:46:38.833Z,16.66
2022-08-31T03:47:28.780Z,16.66
2022-08-31T03:48:18.770Z,16.65
2022-08-31T03:49:08.771Z,16.65
2022-08-31T03:49:58.760Z,16.66
2022-08-31T03:50:48.774Z,16.67
2022-08-31T03:51:38.721Z,16.69
2022-08-31T03:52:28.720Z,16.69
2022-08-31T03:53:22.657Z,16.69
2022-08-31T03:54:08.742Z,16.69
2022-08-31T03:54:58.698Z,16.69
2022-08-31T03:55:48.692Z,16.69
2022-08-31T03:56:38.681Z,16.66
2022-08-31T03:57:28.661Z,16.60
2022-08-31T03:58:18.656Z,16.57
2022-08-31T03:59:08.684Z,16.51
2022-08-31T03:59:58.654Z,16.48
2022-08-31T04:00:48.642Z,16.45
2022-08-31T04:01:38.642Z,16.45
2022-08-31T04:02:28.668Z,16.42
2022-08-31T04:03:18.836Z,16.44
2022-08-31T04:04:08.609Z,16.44
2022-08-31T04:04:58.591Z,16.47
2022-08-31T04:05:48.571Z,16.47
2022-08-31T04:06:38.560Z,16.50
2022-08-31T04:07:28.564Z,16.50
2022-08-31T04:08:18.558Z,16.52
2022-08-31T04:09:08.594Z,16.54
2022-08-31T04:09:58.521Z,16.52
2022-08-31T04:10:48.531Z,16.51
2022-08-31T04:11:44.894Z,16.50
2022-08-31T04:12:29.523Z,16.42
2022-08-31T04:13:18.567Z,16.37
2022-08-31T04:14:08.509Z,16.33
2022-08-31T04:14:59.480Z,16.33
2022-08-31T04:15:48.526Z,16.34
2022-08-31T04:16:38.450Z,16.34
2022-08-31T04:17:28.452Z,16.34
2022-08-31T04:18:18.450Z,16.34
2022-08-31T04:19:08.449Z,16.36
2022-08-31T04:19:58.430Z,16.34
2022-08-31T04:20:48.431Z,16.37
2022-08-31T04:21:38.425Z,16.34
2022-08-31T04:22:28.399Z,16.34
2022-08-31T04:23:18.573Z,16.33
2022-08-31T04:24:08.399Z,16.32
2022-08-31T04:24:58.361Z,16.29
2022-08-31T04:25:48.371Z,16.29
2022-08-31T04:26:38.349Z,16.27
2022-08-31T04:27:28.350Z,16.30
2022-08-31T04:28:18.336Z,16.33
2022-08-31T04:29:12.815Z,16.33
2022-08-31T04:29:59.314Z,16.34
2022-08-31T04:30:48.352Z,16.34
2022-08-31T04:31:38.312Z,16.36
2022-08-31T04:32:28.307Z,16.37
2022-08-31T04:33:18.368Z,16.36
2022-08-31T04:34:08.278Z,16.37
2022-08-31T04:34:58.278Z,16.37
2022-08-31T04:35:48.259Z,16.34
2022-08-31T04:36:38.251Z,16.33
2022-08-31T04:37:28.231Z,16.34
2022-08-31T04:38:18.295Z,16.33
2022-08-31T04:39:08.249Z,16.33
2022-08-31T04:39:59.284Z,16.34
2022-08-31T04:40:48.256Z,16.33
2022-08-31T04:41:38.199Z,16.34
2022-08-31T04:42:28.179Z,16.33
2022-08-31T04:43:18.362Z,16.34
2022-08-31T04:44:08.175Z,16.34
2022-08-31T04:44:58.140Z,16.33
2022-08-31T04:45:48.193Z,16.30
2022-08-31T04:46:38.128Z,16.25
2022-08-31T04:47:28.129Z,16.22
2022-08-31T04:48:18.119Z,16.16
2022-08-31T04:49:08.129Z,16.11
2022-08-31T04:49:58.099Z,16.11
2022-08-31T04:50:48.099Z,16.08
2022-08-31T04:51:38.078Z,16.07
2022-08-31T04:52:28.503Z,16.07
2022-08-31T04:53:18.135Z,16.07
2022-08-31T04:54:08.077Z,16.07
2022-08-31T04:54:58.029Z,16.10
2022-08-31T04:55:48.046Z,16.13
2022-08-31T04:56:38.028Z,16.14
2022-08-31T04:57:28.009Z,16.16
2022-08-31T04:58:18.021Z,16.14
2022-08-31T04:59:08.024Z,16.16
2022-08-31T04:59:57.979Z,16.13
2022-08-31T05:00:47.980Z,16.14
2022-08-31T05:01:42.988Z,16.14
2022-08-31T05:02:29.018Z,16.17
2022-08-31T05:03:18.077Z,16.18
2022-08-31T05:04:07.949Z,16.22
2022-08-31T05:04:57.948Z,16.22
2022-08-31T05:05:47.930Z,16.18
2022-08-31T05:06:37.922Z,16.18
2022-08-31T05:07:27.899Z,16.18
2022-08-31T05:08:17.927Z,16.18
2022-08-31T05:09:07.898Z,16.22
2022-08-31T05:09:57.878Z,16.22
2022-08-31T05:10:47.891Z,16.22
2022-08-31T05:11:37.857Z,16.22
2022-08-31T05:12:27.857Z,16.22
2022-08-31T05:13:17.996Z,16.22
2022-08-31T05:14:07.860Z,16.22
2022-08-31T05:14:57.810Z,16.18
2022-08-31T05:15:47.888Z,16.22
2022-08-31T05:16:37.810Z,16.23
2022-08-31T05:17:27.799Z,16.22
2022-08-31T05:18:17.797Z,16.18
2022-08-31T05:19:07.797Z,16.23
2022-08-31T05:19:57.767Z,16.18
2022-08-31T05:20:47.760Z,16.18
2022-08-31T05:21:37.744Z,16.22
2022-08-31T05:22:27.738Z,16.22
2022-08-31T05:23:17.854Z,16.23
2022-08-31T05:24:07.748Z,16.22
2022-08-31T05:24:57.841Z,16.22
2022-08-31T05:25:47.697Z,16.22
2022-08-31T05:26:38.083Z,16.25
2022-08-31T05:27:27.687Z,16.25
2022-08-31T05:28:17.694Z,16.25
2022-08-31T05:29:07.690Z,16.22
2022-08-31T05:29:57.662Z,16.22
2022-08-31T05:30:47.701Z,16.18
2022-08-31T05:31:37.628Z,16.18
2022-08-31T05:32:27.629Z,16.18
2022-08-31T05:33:17.865Z,16.22
2022-08-31T05:34:07.664Z,16.23
2022-08-31T05:34:57.597Z,16.23
2022-08-31T05:35:47.597Z,16.25
2022-08-31T05:36:37.602Z,16.25
2022-08-31T05:37:27.577Z,16.26
2022-08-31T05:38:17.585Z,16.27
2022-08-31T05:39:07.579Z,16.29
2022-08-31T05:39:57.545Z,16.27
2022-08-31T05:40:47.593Z,16.29
2022-08-31T05:41:37.527Z,16.29
2022-08-31T05:42:27.547Z,16.29
2022-08-31T05:43:17.755Z,16.29
2022-08-31T05:44:07.499Z,16.29
2022-08-31T05:44:57.495Z,16.29
2022-08-31T05:45:47.487Z,16.29
2022-08-31T05:46:37.494Z,16.27
2022-08-31T05:47:27.472Z,16.27
2022-08-31T05:48:17.479Z,16.27
2022-08-31T05:49:07.526Z,16.29
2022-08-31T05:49:57.436Z,16.27
2022-08-31T05:50:47.427Z,16.29
2022-08-31T05:51:38.647Z,16.27
2022-08-31T05:52:27.415Z,16.27
2022-08-31T05:53:17.621Z,16.27
2022-08-31T05:54:07.408Z,16.26
2022-08-31T05:54:57.397Z,16.25
2022-08-31T05:55:47.400Z,16.25
2022-08-31T05:56:37.385Z,16.23
2022-08-31T05:57:27.373Z,16.26
2022-08-31T05:58:17.377Z,16.26
2022-08-31T05:59:07.359Z,16.25
2022-08-31T05:59:58.582Z,16.25
2022-08-31T06:00:47.316Z,16.25
2022-08-31T06:01:37.340Z,16.23
2022-08-31T06:02:27.298Z,16.22
2022-08-31T06:03:17.333Z,16.23
2022-08-31T06:04:07.307Z,16.23
2022-08-31T06:04:57.328Z,16.23
2022-08-31T06:05:47.266Z,16.22
2022-08-31T06:06:37.250Z,16.23
2022-08-31T06:07:27.246Z,16.22
2022-08-31T06:08:17.246Z,16.16
2022-08-31T06:09:07.229Z,16.11
2022-08-31T06:09:57.218Z,16.07
2022-08-31T06:10:47.207Z,15.99
2022-08-31T06:11:37.208Z,15.95
2022-08-31T06:12:27.206Z,15.91
2022-08-31T06:13:17.359Z,15.88
2022-08-31T06:14:07.167Z,15.86
2022-08-31T06:14:57.167Z,15.89
2022-08-31T06:15:47.174Z,15.93
2022-08-31T06:16:37.195Z,15.88
2022-08-31T06:17:27.203Z,15.88
2022-08-31T06:18:17.143Z,15.92
2022-08-31T06:19:07.145Z,15.91
2022-08-31T06:19:57.136Z,15.91
2022-08-31T06:20:47.110Z,15.89
2022-08-31T06:21:37.085Z,15.91
2022-08-31T06:22:27.115Z,15.91
2022-08-31T06:23:17.122Z,15.89
2022-08-31T06:24:07.067Z,15.88
2022-08-31T06:24:57.073Z,15.85
2022-08-31T06:25:47.046Z,15.80
2022-08-31T06:28:52.695Z,15.76
2022-08-31T06:29:42.695Z,15.74
2022-08-31T06:30:32.698Z,15.73
2022-08-31T06:31:22.704Z,15.73
2022-08-31T06:32:12.655Z,15.74
2022-08-31T06:33:02.666Z,15.76
2022-08-31T06:33:52.665Z,15.84
2022-08-31T06:34:42.637Z,15.86
2022-08-31T06:35:32.627Z,15.89
2022-08-31T06:36:22.644Z,15.91
2022-08-31T06:37:18.469Z,15.91
2022-08-31T06:38:03.617Z,15.92
2022-08-31T06:38:52.639Z,15.92
2022-08-31T06:39:45.087Z,15.91
2022-08-31T06:40:32.616Z,15.93
2022-08-31T06:41:22.575Z,15.92
2022-08-31T06:42:12.555Z,15.89
2022-08-31T06:43:02.547Z,15.89
2022-08-31T06:43:52.560Z,15.91
2022-08-31T06:44:42.536Z,15.93
2022-08-31T06:45:32.565Z,15.93
2022-08-31T06:46:22.567Z,15.92
2022-08-31T06:47:12.494Z,15.93
2022-08-31T06:48:02.504Z,15.93
2022-08-31T06:48:52.517Z,15.95
2022-08-31T06:49:42.481Z,15.96
2022-08-31T06:50:32.467Z,16.01
2022-08-31T06:51:22.477Z,16.01
2022-08-31T06:52:12.463Z,16.04
2022-08-31T06:53:02.437Z,16.06
2022-08-31T06:53:52.435Z,16.07
2022-08-31T06:54:42.446Z,16.08
2022-08-31T06:55:32.404Z,16.10
2022-08-31T06:56:22.414Z,16.13
2022-08-31T06:57:12.413Z,16.18
2022-08-31T06:58:02.393Z,16.25
2022-08-31T06:58:54.013Z,16.27
2022-08-31T06:59:42.385Z,16.33
2022-08-31T07:00:32.353Z,16.33
2022-08-31T07:01:35.211Z,16.34
2022-08-31T07:02:13.577Z,16.40
2022-08-31T07:03:02.359Z,16.41
2022-08-31T07:03:52.345Z,16.42
2022-08-31T07:04:42.316Z,16.42
2022-08-31T07:05:32.306Z,16.37
2022-08-31T07:06:22.304Z,16.37
2022-08-31T07:07:12.293Z,16.40
2022-08-31T07:08:02.273Z,16.42
2022-08-31T07:08:52.294Z,16.45
2022-08-31T07:09:42.318Z,16.48
2022-08-31T07:10:32.256Z,16.51
2022-08-31T07:11:22.772Z,16.52
2022-08-31T07:12:12.531Z,16.54
2022-08-31T07:13:02.226Z,16.54
2022-08-31T07:13:52.226Z,16.55
2022-08-31T07:14:42.233Z,16.62
2022-08-31T07:15:33.208Z,16.65
2022-08-31T07:16:22.330Z,16.66
2022-08-31T07:17:12.175Z,16.69
2022-08-31T07:18:02.176Z,16.69
2022-08-31T07:18:52.971Z,16.70
2022-08-31T07:19:45.020Z,16.70
2022-08-31T07:20:32.168Z,16.70
2022-08-31T07:21:22.155Z,16.73
2022-08-31T07:22:15.461Z,16.75
2022-08-31T07:23:02.175Z,16.75
2022-08-31T07:23:52.126Z,16.77
2022-08-31T07:24:42.106Z,16.70
2022-08-31T07:25:32.126Z,16.75
2022-08-31T07:26:22.105Z,16.77
2022-08-31T07:27:12.085Z,16.81
2022-08-31T07:28:02.083Z,16.84
2022-08-31T07:28:52.081Z,16.78
2022-08-31T07:29:42.054Z,16.80
2022-08-31T07:30:33.574Z,16.82
2022-08-31T07:31:22.099Z,16.84
2022-08-31T07:32:12.030Z,16.85
2022-08-31T07:33:02.026Z,16.82
2022-08-31T07:33:52.030Z,16.77
2022-08-31T07:34:42.008Z,16.69
2022-08-31T07:35:32.007Z,16.70
2022-08-31T07:36:22.000Z,16.72
2022-08-31T07:37:12.042Z,16.75
2022-08-31T07:38:01.987Z,16.73
2022-08-31T07:38:51.998Z,16.78
2022-08-31T07:39:41.990Z,16.84
2022-08-31T07:40:31.960Z,16.91
2022-08-31T07:41:22.008Z,16.87
2022-08-31T07:42:11.935Z,16.78
2022-08-31T07:43:01.925Z,16.70
2022-08-31T07:43:51.935Z,16.69
2022-08-31T07:44:41.914Z,16.69
2022-08-31T07:45:35.822Z,16.67
2022-08-31T07:46:22.978Z,16.69
2022-08-31T07:47:11.874Z,16.70
2022-08-31T07:48:01.906Z,16.66
2022-08-31T07:48:51.866Z,16.65
2022-08-31T07:49:41.862Z,16.65
2022-08-31T07:50:31.882Z,16.66
2022-08-31T07:51:21.854Z,16.67
2022-08-31T07:52:11.834Z,16.70
2022-08-31T07:53:01.832Z,16.73
2022-08-31T07:53:51.832Z,16.80
2022-08-31T07:54:41.819Z,16.82
2022-08-31T07:55:31.794Z,16.81
2022-08-31T07:56:21.780Z,16.82
2022-08-31T07:57:11.794Z,16.82
2022-08-31T07:58:01.764Z,16.84
2022-08-31T07:58:51.775Z,16.91
2022-08-31T07:59:41.772Z,16.92
2022-08-31T08:00:31.745Z,16.91
2022-08-31T08:01:21.776Z,16.92
2022-08-31T08:02:16.571Z,16.91
2022-08-31T08:03:02.747Z,16.95
2022-08-31T08:03:51.723Z,16.99
2022-08-31T08:04:41.727Z,17.02
2022-08-31T08:05:31.706Z,17.05
2022-08-31T08:06:21.717Z,17.03
2022-08-31T08:07:11.672Z,17.07
2022-08-31T08:08:01.655Z,17.03
2022-08-31T08:09:21.375Z,17.05
2022-08-31T08:09:42.652Z,17.06
2022-08-31T08:10:31.644Z,17.09
2022-08-31T08:11:21.644Z,17.12
2022-08-31T08:12:11.630Z,17.12
2022-08-31T08:13:02.379Z,17.17
2022-08-31T08:13:51.625Z,17.22
2022-08-31T08:14:41.597Z,17.28
2022-08-31T08:15:31.615Z,17.35
2022-08-31T08:16:21.647Z,17.40
2022-08-31T08:17:11.591Z,17.47
2022-08-31T08:18:01.574Z,17.55
2022-08-31T08:18:51.591Z,17.63
2022-08-31T08:19:41.564Z,17.66
2022-08-31T08:20:37.273Z,17.68
2022-08-31T08:21:22.545Z,17.73
2022-08-31T08:22:11.533Z,17.76
2022-08-31T08:23:01.549Z,17.77
2022-08-31T08:23:51.518Z,17.81
2022-08-31T08:24:41.497Z,17.80
2022-08-31T08:25:31.494Z,17.77
2022-08-31T08:26:22.369Z,17.84
2022-08-31T08:27:11.484Z,17.91
2022-08-31T08:28:08.770Z,18.01
2022-08-31T08:28:52.482Z,18.07
2022-08-31T08:29:41.453Z,18.10
2022-08-31T08:30:31.457Z,18.14
2022-08-31T08:31:21.522Z,18.17
2022-08-31T08:32:15.443Z,18.21
2022-08-31T08:33:02.405Z,18.21
2022-08-31T08:33:51.465Z,18.25
2022-08-31T08:34:41.406Z,18.25
2022-08-31T08:35:31.394Z,18.26
2022-08-31T08:36:21.381Z,18.29
2022-08-31T08:37:11.375Z,18.36
2022-08-31T08:38:07.015Z,18.35
2022-08-31T08:38:52.394Z,18.36
2022-08-31T08:39:41.345Z,18.39
2022-08-31T08:40:31.424Z,18.44
2022-08-31T08:41:21.354Z,18.50
2022-08-31T08:42:11.324Z,18.53
2022-08-31T08:43:01.323Z,18.56
2022-08-31T08:43:52.681Z,18.59
2022-08-31T08:44:41.291Z,18.65
2022-08-31T08:45:31.349Z,18.69
2022-08-31T08:47:12.283Z,18.75
2022-08-31T08:47:28.514Z,18.71
2022-08-31T08:48:01.254Z,18.75
2022-08-31T08:48:55.431Z,18.79
2022-08-31T08:49:41.244Z,18.78
2022-08-31T08:50:31.234Z,18.82
2022-08-31T08:51:21.238Z,18.86
2022-08-31T08:52:11.268Z,18.89
2022-08-31T08:53:01.234Z,18.91
2022-08-31T08:53:51.215Z,18.93
2022-08-31T08:54:42.597Z,18.93
2022-08-31T08:55:31.187Z,18.94
2022-08-31T08:56:32.757Z,18.96
2022-08-31T08:57:12.184Z,18.93
2022-08-31T08:58:01.156Z,18.96
2022-08-31T08:58:51.171Z,18.97
2022-08-31T08:59:41.136Z,18.99
2022-08-31T09:00:31.145Z,18.94
2022-08-31T09:01:21.188Z,18.94
2022-08-31T09:02:11.217Z,18.94
2022-08-31T09:03:01.318Z,18.90
2022-08-31T09:03:51.148Z,18.84
2022-08-31T09:04:41.092Z,18.78
2022-08-31T09:05:31.078Z,18.68
2022-08-31T09:06:21.056Z,18.57
2022-08-31T09:07:11.054Z,18.50
2022-08-31T09:08:01.074Z,18.49
2022-08-31T09:08:51.056Z,18.41
2022-08-31T09:09:41.062Z,18.39
2022-08-31T09:10:31.043Z,18.38
2022-08-31T09:11:21.025Z,18.42
2022-08-31T09:12:14.656Z,18.42
2022-08-31T09:13:01.013Z,18.44
2022-08-31T09:13:51.007Z,18.49
2022-08-31T09:14:40.975Z,18.50
2022-08-31T09:15:30.980Z,18.49
2022-08-31T09:16:20.995Z,18.50
2022-08-31T09:17:10.974Z,18.53
2022-08-31T09:18:00.946Z,18.51
2022-08-31T09:18:50.964Z,18.53
2022-08-31T09:19:40.936Z,18.53
2022-08-31T09:20:30.952Z,18.57
2022-08-31T09:21:20.925Z,18.60
2022-08-31T09:22:10.934Z,18.62
2022-08-31T09:23:00.895Z,18.64
2022-08-31T09:23:50.957Z,18.66
2022-08-31T09:24:40.885Z,18.68
2022-08-31T09:25:30.884Z,18.68
2022-08-31T09:26:20.855Z,18.72
2022-08-31T09:27:10.874Z,18.72
2022-08-31T09:28:00.866Z,18.74
2022-08-31T09:28:50.867Z,18.74
2022-08-31T09:29:40.838Z,18.76
2022-08-31T09:30:30.832Z,18.76
2022-08-31T09:31:20.856Z,18.78
2022-08-31T09:32:10.806Z,18.82
2022-08-31T09:33:00.797Z,18.82
2022-08-31T09:33:50.819Z,18.83
2022-08-31T09:34:40.786Z,18.87
2022-08-31T09:35:30.775Z,18.89
2022-08-31T09:36:20.785Z,18.90
2022-08-31T09:37:10.785Z,18.93
2022-08-31T09:38:00.757Z,18.94
2022-08-31T09:38:50.761Z,18.94
2022-08-31T09:39:40.738Z,18.91
2022-08-31T09:40:30.768Z,18.82
2022-08-31T09:41:20.718Z,18.75
2022-08-31T09:42:10.716Z,18.76
2022-08-31T09:43:00.686Z,18.76
2022-08-31T09:43:50.725Z,18.79
2022-08-31T09:44:40.682Z,18.78
2022-08-31T09:45:30.745Z,18.75
2022-08-31T09:46:20.728Z,18.75
2022-08-31T09:47:10.655Z,18.79
2022-08-31T09:48:00.645Z,18.79
2022-08-31T09:48:50.725Z,18.82
2022-08-31T09:49:40.627Z,18.82
2022-08-31T09:50:31.523Z,18.84
2022-08-31T09:51:20.615Z,18.87
2022-08-31T09:52:10.596Z,18.87
2022-08-31T09:53:00.602Z,18.87
2022-08-31T09:53:50.615Z,18.89
2022-08-31T09:54:46.000Z,18.90
2022-08-31T09:55:31.565Z,18.91
2022-08-31T09:56:20.556Z,18.90
2022-08-31T09:57:10.547Z,18.91
2022-08-31T09:58:00.528Z,18.94
2022-08-31T09:58:50.578Z,18.97
2022-08-31T09:59:40.525Z,18.99
2022-08-31T10:00:30.516Z,19.01
2022-08-31T10:01:20.571Z,19.02
2022-08-31T10:02:10.487Z,19.06
2022-08-31T10:03:03.551Z,19.06
2022-08-31T10:03:51.505Z,19.09
2022-08-31T10:04:40.502Z,19.10
2022-08-31T10:05:30.570Z,19.13
2022-08-31T10:06:20.444Z,19.16
2022-08-31T10:07:10.455Z,19.15
2022-08-31T10:08:00.443Z,19.15
2022-08-31T10:08:50.446Z,19.16
2022-08-31T10:09:40.423Z,19.17
2022-08-31T10:10:31.793Z,19.21
2022-08-31T10:11:20.389Z,19.24
2022-08-31T10:12:10.395Z,19.20
2022-08-31T10:13:00.374Z,19.16
2022-08-31T10:13:50.385Z,19.12
2022-08-31T10:14:40.366Z,19.15
2022-08-31T10:15:30.348Z,19.13
2022-08-31T10:16:20.368Z,19.13
2022-08-31T10:17:10.335Z,19.15
2022-08-31T10:18:00.317Z,19.17
2022-08-31T10:18:50.325Z,19.21
2022-08-31T10:19:40.298Z,19.23
2022-08-31T10:20:30.601Z,19.24
2022-08-31T10:21:20.277Z,19.21
2022-08-31T10:22:10.274Z,19.23
2022-08-31T10:23:00.296Z,19.21
2022-08-31T10:23:50.285Z,19.24
2022-08-31T10:24:40.235Z,19.23
2022-08-31T10:25:30.229Z,19.23
2022-08-31T10:26:20.229Z,19.24
2022-08-31T10:27:10.225Z,19.25
2022-08-31T10:28:00.206Z,19.28
2022-08-31T10:28:50.239Z,19.32
2022-08-31T10:29:40.175Z,19.31
2022-08-31T10:30:30.171Z,19.34
2022-08-31T10:31:20.221Z,19.38
2022-08-31T10:32:10.185Z,19.38
2022-08-31T10:33:00.141Z,19.40
2022-08-31T10:33:50.164Z,19.45
2022-08-31T10:34:40.137Z,19.49
2022-08-31T10:35:30.135Z,19.50
2022-08-31T10:36:20.115Z,19.50
2022-08-31T10:37:10.108Z,19.53
2022-08-31T10:38:00.108Z,19.55
2022-08-31T10:38:50.130Z,19.58
2022-08-31T10:39:40.076Z,19.62
2022-08-31T10:40:30.201Z,19.67
2022-08-31T10:41:20.050Z,19.71
2022-08-31T10:42:10.047Z,19.72
2022-08-31T10:43:00.025Z,19.75
2022-08-31T10:43:50.085Z,19.78
2022-08-31T10:44:40.027Z,19.82
2022-08-31T10:45:31.018Z,19.86
2022-08-31T10:46:20.030Z,19.92